createdAt,value
2022-11-20T00:00:52.792Z,73.70
2022-11-20T00:03:24.088Z,73.71
2022-11-20T00:05:55.340Z,73.67
2022-11-20T00:08:26.451Z,73.78
2022-11-20T00:10:57.745Z,73.74
2022-11-20T00:13:28.744Z,73.86
2022-11-20T00:16:00.520Z,73.79
2022-11-20T00:18:31.361Z,73.75
2022-11-20T00:21:06.124Z,73.78
2022-11-20T00:23:36.986Z,73.82
2022-11-20T00:26:09.146Z,73.76
2022-11-20T00:28:40.269Z,73.81
2022-11-20T00:31:15.003Z,73.80
2022-11-20T00:33:46.093Z,73.88
2022-11-20T00:36:18.338Z,73.95
2022-11-20T00:38:49.509Z,73.93
2022-11-20T00:41:20.261Z,73.97
2022-11-20T00:43:51.504Z,74.01
2022-11-20T00:46:26.372Z,74.04
2022-11-20T00:48:57.325Z,74.10
2022-11-20T00:51:29.180Z,74.01
2022-11-20T00:54:01.125Z,74.20
2022-11-20T00:56:32.133Z,74.17
2022-11-20T00:59:02.948Z,74.17
2022-11-20T01:01:33.759Z,74.33
2022-11-20T01:04:04.605Z,74.34
2022-11-20T01:06:36.641Z,74.39
2022-11-20T01:09:09.849Z,74.35
2022-11-20T01:11:41.877Z,74.40
2022-11-20T01:14:14.536Z,74.36
2022-11-20T01:16:47.124Z,74.35
2022-11-20T01:19:19.689Z,74.40
2022-11-20T01:21:52.626Z,74.42
2022-11-20T01:24:23.875Z,74.47
2022-11-20T01:26:54.695Z,74.55
2022-11-20T01:29:26.625Z,74.52
2022-11-20T01:31:57.400Z,74.59
2022-11-20T01:34:28.498Z,74.55
2022-11-20T01:36:59.191Z,74.56
2022-11-20T01:39:30.235Z,74.59
2022-11-20T01:42:19.108Z,74.67
2022-11-20T01:44:54.217Z,74.57
2022-11-20T01:47:29.360Z,74.62
2022-11-20T01:50:01.644Z,74.69
2022-11-20T01:52:33.938Z,74.75
2022-11-20T01:55:12.141Z,74.80
2022-11-20T01:57:42.986Z,74.81
2022-11-20T02:00:15.227Z,74.87
2022-11-20T02:02:48.007Z,74.87
2022-11-20T02:05:20.422Z,74.95
2022-11-20T02:07:51.864Z,75.00
2022-11-20T02:10:23.093Z,74.94
2022-11-20T02:13:12.219Z,74.98
2022-11-20T02:15:44.224Z,74.98
2022-11-20T02:18:16.482Z,75.07
2022-11-20T02:20:48.431Z,75.13
2022-11-20T02:23:23.654Z,75.02
2022-11-20T02:25:55.730Z,75.07
2022-11-20T02:28:26.552Z,75.16
2022-11-20T02:30:57.389Z,75.08
2022-11-20T02:33:28.193Z,75.06
2022-11-20T02:35:59.174Z,75.03
2022-11-20T02:38:29.968Z,75.07
2022-11-20T02:41:00.742Z,75.05
2022-11-20T02:43:31.510Z,75.14
2022-11-20T02:46:02.435Z,75.13
2022-11-20T02:48:34.085Z,75.10
2022-11-20T02:51:04.926Z,75.17
2022-11-20T02:53:35.753Z,75.13
2022-11-20T02:56:06.771Z,75.12
2022-11-20T02:58:37.669Z,75.12
2022-11-20T03:01:08.956Z,75.17
2022-11-20T03:03:39.866Z,75.18
2022-11-20T03:06:10.624Z,75.10
2022-11-20T03:08:41.545Z,75.10
2022-11-20T03:11:12.608Z,75.12
2022-11-20T03:13:43.400Z,75.11
2022-11-20T03:16:15.404Z,75.17
2022-11-20T03:18:47.302Z,75.13
2022-11-20T03:21:18.202Z,75.14
2022-11-20T03:23:48.929Z,75.21
2022-11-20T03:26:20.640Z,75.17
2022-11-20T03:28:52.488Z,75.18
2022-11-20T03:31:24.888Z,75.15
2022-11-20T03:33:56.161Z,75.16
2022-11-20T03:36:27.571Z,75.21
2022-11-20T03:38:59.067Z,75.19
2022-11-20T03:41:31.691Z,75.16
2022-11-20T03:44:04.403Z,75.16
2022-11-20T03:46:35.607Z,75.17
2022-11-20T03:49:06.711Z,75.22
2022-11-20T03:51:38.123Z,75.22
2022-11-20T03:54:09.777Z,75.16
2022-11-20T03:56:40.868Z,75.22
2022-11-20T03:59:12.387Z,75.17
2022-11-20T04:01:48.196Z,75.21
2022-11-20T04:04:15.579Z,75.20
2022-11-20T04:06:46.651Z,75.16
2022-11-20T04:09:17.670Z,75.15
2022-11-20T04:11:48.446Z,75.12
2022-11-20T04:14:19.415Z,75.09
2022-11-20T04:16:50.344Z,75.12
2022-11-20T04:19:21.242Z,75.03
2022-11-20T04:21:52.134Z,75.04
2022-11-20T04:24:23.338Z,75.02
2022-11-20T04:26:54.239Z,74.98
2022-11-20T04:29:25.005Z,74.95
2022-11-20T04:31:55.845Z,74.98
2022-11-20T04:34:26.639Z,75.02
2022-11-20T04:36:57.960Z,74.95
2022-11-20T04:39:28.694Z,74.93
2022-11-20T04:42:06.871Z,75.02
2022-11-20T04:44:37.739Z,74.97
2022-11-20T04:47:08.574Z,75.01
2022-11-20T04:49:39.594Z,74.96
2022-11-20T04:52:10.527Z,75.02
2022-11-20T04:54:41.418Z,74.97
2022-11-20T04:57:14.592Z,74.92
2022-11-20T04:59:44.964Z,75.00
2022-11-20T05:02:16.154Z,75.01
2022-11-20T05:04:46.887Z,74.93
2022-11-20T05:07:17.723Z,74.95
2022-11-20T05:09:48.607Z,74.95
2022-11-20T05:12:19.412Z,74.99
2022-11-20T05:14:50.392Z,74.98
2022-11-20T05:17:21.214Z,74.98
2022-11-20T05:19:53.224Z,74.94
2022-11-20T05:22:24.189Z,75.00
2022-11-20T05:24:55.149Z,75.01
2022-11-20T05:27:26.019Z,74.98
2022-11-20T05:29:57.045Z,74.95
2022-11-20T05:32:28.163Z,74.93
2022-11-20T05:34:58.950Z,74.98
2022-11-20T05:37:29.705Z,74.93
2022-11-20T05:40:00.641Z,74.98
2022-11-20T05:42:33.014Z,74.92
2022-11-20T05:45:05.538Z,74.89
2022-11-20T05:47:36.386Z,74.88
2022-11-20T05:50:07.409Z,74.90
2022-11-20T05:52:38.282Z,74.84
2022-11-20T05:55:09.484Z,74.83
2022-11-20T05:57:41.799Z,74.86
2022-11-20T06:00:12.963Z,74.84
2022-11-20T06:02:43.724Z,74.81
2022-11-20T06:05:14.655Z,74.72
2022-11-20T06:07:45.570Z,74.37
2022-11-20T06:10:16.420Z,74.01
2022-11-20T06:12:47.309Z,73.86
2022-11-20T06:15:18.076Z,73.65
2022-11-20T06:17:49.132Z,73.25
2022-11-20T06:20:20.069Z,73.16
2022-11-20T06:22:51.011Z,73.08
2022-11-20T06:25:21.783Z,73.03
2022-11-20T06:27:52.854Z,72.92
2022-11-20T06:30:23.663Z,72.80
2022-11-20T06:32:54.577Z,72.70
2022-11-20T06:35:25.594Z,72.77
2022-11-20T06:37:57.944Z,72.80
2022-11-20T06:40:28.772Z,73.00
2022-11-20T06:42:59.532Z,73.07
2022-11-20T06:45:30.738Z,73.09
2022-11-20T06:48:01.782Z,73.13
2022-11-20T06:50:32.691Z,73.12
2022-11-20T06:53:04.212Z,73.04
2022-11-20T06:55:35.276Z,73.05
2022-11-20T06:58:06.211Z,73.05
2022-11-20T07:00:37.045Z,73.00
2022-11-20T07:03:08.745Z,72.92
2022-11-20T07:05:39.708Z,72.84
2022-11-20T07:08:10.427Z,72.86
2022-11-20T07:10:41.276Z,72.73
2022-11-20T07:13:12.116Z,72.53
2022-11-20T07:15:42.873Z,72.50
2022-11-20T07:18:13.819Z,72.23
2022-11-20T07:20:44.590Z,72.16
2022-11-20T07:23:15.406Z,72.10
2022-11-20T07:25:46.305Z,72.14
2022-11-20T07:28:17.182Z,72.18
2022-11-20T07:30:52.351Z,72.22
2022-11-20T07:33:23.281Z,72.23
2022-11-20T07:35:54.242Z,72.27
2022-11-20T07:38:25.162Z,72.05
2022-11-20T07:40:58.743Z,72.07
2022-11-20T07:43:29.708Z,72.10
2022-11-20T07:46:01.266Z,72.12
2022-11-20T07:48:32.026Z,72.13
2022-11-20T07:51:02.921Z,72.14
2022-11-20T07:53:34.099Z,72.20
2022-11-20T07:56:05.459Z,72.11
2022-11-20T07:58:36.294Z,72.11
2022-11-20T08:01:08.358Z,72.10
2022-11-20T08:03:39.947Z,72.12
2022-11-20T08:06:10.874Z,72.09
2022-11-20T08:08:42.928Z,72.01
2022-11-20T08:11:32.404Z,71.84
2022-11-20T08:14:15.358Z,71.70
2022-11-20T08:16:48.132Z,71.57
2022-11-20T08:19:20.514Z,71.17
2022-11-20T08:21:51.678Z,71.21
2022-11-20T08:24:22.603Z,71.31
2022-11-20T08:26:53.456Z,71.42
2022-11-20T08:29:24.727Z,71.32
2022-11-20T08:31:56.068Z,71.41
2022-11-20T08:34:27.109Z,71.39
2022-11-20T08:36:57.943Z,71.38
2022-11-20T08:39:28.806Z,71.40
2022-11-20T08:41:59.898Z,71.46
2022-11-20T08:44:31.392Z,71.47
2022-11-20T08:47:02.735Z,71.42
2022-11-20T08:49:33.445Z,71.43
2022-11-20T08:52:04.320Z,71.53
2022-11-20T08:54:35.316Z,71.67
2022-11-20T08:57:07.437Z,71.68
2022-11-20T09:00:04.416Z,71.75
2022-11-20T09:02:11.394Z,71.75
2022-11-20T09:04:42.224Z,71.66
2022-11-20T09:07:13.248Z,71.58
2022-11-20T09:09:44.231Z,71.51
2022-11-20T09:12:15.315Z,71.46
2022-11-20T09:14:48.761Z,71.44
2022-11-20T09:17:18.568Z,71.27
2022-11-20T09:19:49.447Z,71.21
2022-11-20T09:22:20.487Z,71.08
2022-11-20T09:24:51.365Z,70.86
2022-11-20T09:27:22.842Z,70.63
2022-11-20T09:29:53.625Z,70.56
2022-11-20T09:32:24.488Z,70.47
2022-11-20T09:34:55.339Z,70.45
2022-11-20T09:37:26.286Z,70.29
2022-11-20T09:39:57.042Z,70.18
2022-11-20T09:42:32.408Z,70.11
2022-11-20T09:45:10.864Z,70.04
2022-11-20T09:47:49.159Z,70.03
2022-11-20T09:50:21.453Z,70.07
2022-11-20T09:52:54.267Z,70.02
2022-11-20T09:55:25.740Z,69.94
2022-11-20T09:57:57.360Z,69.86
2022-11-20T10:00:29.706Z,69.93
2022-11-20T10:03:16.887Z,69.88
2022-11-20T10:05:49.221Z,69.90
2022-11-20T10:08:21.702Z,69.64
2022-11-20T10:10:54.043Z,69.79
2022-11-20T10:13:32.340Z,69.86
2022-11-20T10:16:10.665Z,69.91
2022-11-20T10:18:42.998Z,69.90
2022-11-20T10:21:27.459Z,69.98
2022-11-20T10:24:00.761Z,70.09
2022-11-20T10:26:33.131Z,70.14
2022-11-20T10:29:11.471Z,70.19
2022-11-20T10:31:47.028Z,70.23
2022-11-20T10:34:22.606Z,70.13
2022-11-20T10:36:53.672Z,70.03
2022-11-20T10:39:37.717Z,69.80
2022-11-20T10:42:10.095Z,69.87
2022-11-20T10:45:04.405Z,69.83
2022-11-20T10:47:33.746Z,69.88
2022-11-20T10:50:06.085Z,70.02
2022-11-20T10:52:38.411Z,69.97
2022-11-20T10:55:26.013Z,69.35
2022-11-20T10:57:58.302Z,69.23
2022-11-20T11:00:29.148Z,68.89
2022-11-20T11:03:04.202Z,68.75
2022-11-20T11:05:36.729Z,68.43
2022-11-20T11:08:09.273Z,68.55
2022-11-20T11:10:56.901Z,68.57
2022-11-20T11:13:28.872Z,68.81
2022-11-20T11:16:00.133Z,68.62
2022-11-20T11:18:35.164Z,68.54
2022-11-20T11:21:07.024Z,68.20
2022-11-20T11:23:41.805Z,68.19
2022-11-20T11:26:23.331Z,68.52
2022-11-20T11:29:01.730Z,68.61
2022-11-20T11:31:33.615Z,68.76
2022-11-20T11:34:11.898Z,68.71
2022-11-20T11:36:43.244Z,68.93
2022-11-20T11:39:15.454Z,69.02
2022-11-20T11:41:46.388Z,69.12
2022-11-20T11:44:45.449Z,69.07
2022-11-20T11:47:23.847Z,69.17
2022-11-20T11:50:12.439Z,69.12
2022-11-20T11:53:01.234Z,68.81
2022-11-20T11:55:39.372Z,68.98
2022-11-20T11:58:24.032Z,68.74
2022-11-20T12:00:59.393Z,67.20
2022-11-20T12:03:42.150Z,66.09
2022-11-20T12:06:17.111Z,66.35
2022-11-20T12:09:01.486Z,65.68
2022-11-20T12:11:34.219Z,65.77
2022-11-20T12:14:24.608Z,66.41
2022-11-20T12:16:56.932Z,66.66
2022-11-20T12:19:29.578Z,66.91
2022-11-20T12:22:18.163Z,66.98
2022-11-20T12:24:53.222Z,67.06
2022-11-20T12:27:37.526Z,66.73
2022-11-20T12:30:10.181Z,67.06
2022-11-20T12:32:54.853Z,67.06
2022-11-20T12:35:36.131Z,66.97
2022-11-20T12:38:11.574Z,67.08
2022-11-20T12:40:55.591Z,67.08
2022-11-20T12:43:46.000Z,67.05
2022-11-20T12:46:30.271Z,67.40
2022-11-20T12:49:05.456Z,67.28
2022-11-20T12:51:38.267Z,66.47
2022-11-20T12:54:26.894Z,66.68
2022-11-20T12:57:03.951Z,66.38
2022-11-20T12:59:42.279Z,66.67
2022-11-20T13:02:14.676Z,66.72
2022-11-20T13:04:53.075Z,66.82
2022-11-20T13:07:25.483Z,66.91
2022-11-20T13:09:56.891Z,66.96
2022-11-20T13:12:29.377Z,67.03
2022-11-20T13:15:01.911Z,66.53
2022-11-20T13:17:45.948Z,66.45
2022-11-20T13:20:21.205Z,66.22
2022-11-20T13:22:59.400Z,66.00
2022-11-20T13:25:31.565Z,65.54
2022-11-20T13:28:04.500Z,65.75
2022-11-20T13:30:36.068Z,66.04
2022-11-20T13:33:11.792Z,66.28
2022-11-20T13:35:44.126Z,66.45
2022-11-20T13:38:16.331Z,66.44
2022-11-20T13:41:00.763Z,66.76
2022-11-20T13:43:38.865Z,66.89
2022-11-20T13:46:11.190Z,67.01
2022-11-20T13:48:42.967Z,66.85
2022-11-20T13:51:17.953Z,66.71
2022-11-20T13:54:08.623Z,66.78
2022-11-20T13:56:44.088Z,66.84
2022-11-20T13:59:32.501Z,66.83
2022-11-20T14:02:03.501Z,67.04
2022-11-20T14:04:38.929Z,67.07
2022-11-20T14:07:10.858Z,67.26
2022-11-20T14:09:43.321Z,67.31
2022-11-20T14:12:18.460Z,67.09
2022-11-20T14:14:53.525Z,67.16
2022-11-20T14:17:26.573Z,67.34
2022-11-20T14:19:59.163Z,67.38
2022-11-20T14:22:30.543Z,67.42
2022-11-20T14:25:08.853Z,67.51
2022-11-20T14:27:41.280Z,67.57
2022-11-20T14:30:17.106Z,67.60
2022-11-20T14:32:48.885Z,67.78
2022-11-20T14:35:24.473Z,67.77
2022-11-20T14:37:55.713Z,67.45
2022-11-20T14:40:35.942Z,67.48
2022-11-20T14:43:22.966Z,67.62
2022-11-20T14:46:07.003Z,67.70
2022-11-20T14:48:39.318Z,67.76
2022-11-20T14:51:13.643Z,67.78
2022-11-20T14:53:44.501Z,67.74
2022-11-20T14:56:16.750Z,67.66
2022-11-20T14:58:48.963Z,67.58
2022-11-20T15:01:21.441Z,67.46
2022-11-20T15:03:53.935Z,67.43
2022-11-20T15:06:26.346Z,67.28
2022-11-20T15:08:57.530Z,67.27
2022-11-20T15:11:30.263Z,67.37
2022-11-20T15:14:02.542Z,67.33
2022-11-20T15:16:34.160Z,67.36
2022-11-20T15:19:06.563Z,67.34
2022-11-20T15:21:37.410Z,67.35
2022-11-20T15:24:09.818Z,67.32
2022-11-20T15:26:43.449Z,67.33
2022-11-20T15:29:15.921Z,67.29
2022-11-20T15:31:46.994Z,67.31
2022-11-20T15:34:17.994Z,67.26
2022-11-20T15:36:48.869Z,67.23
2022-11-20T15:39:19.858Z,67.24
2022-11-20T15:41:50.559Z,67.26
2022-11-20T15:44:21.570Z,67.25
2022-11-20T15:46:53.007Z,67.31
2022-11-20T15:49:24.843Z,67.36
2022-11-20T15:51:55.921Z,66.89
2022-11-20T15:54:27.041Z,66.85
2022-11-20T15:56:58.260Z,66.80
2022-11-20T15:59:29.220Z,66.60
2022-11-20T16:01:59.997Z,66.44
2022-11-20T16:04:30.916Z,66.53
2022-11-20T16:07:01.847Z,66.36
2022-11-20T16:09:32.762Z,66.35
2022-11-20T16:12:03.589Z,66.43
2022-11-20T16:14:51.962Z,66.27
2022-11-20T16:17:24.406Z,66.36
2022-11-20T16:19:55.428Z,66.26
2022-11-20T16:22:26.371Z,65.98
2022-11-20T16:24:57.139Z,66.00
2022-11-20T16:27:27.961Z,65.98
2022-11-20T16:29:58.811Z,66.04
2022-11-20T16:32:29.592Z,66.05
2022-11-20T16:35:00.349Z,66.12
2022-11-20T16:37:32.588Z,66.26
2022-11-20T16:40:03.576Z,66.36
2022-11-20T16:42:35.710Z,66.36
2022-11-20T16:45:06.975Z,66.30
2022-11-20T16:47:38.353Z,66.19
2022-11-20T16:50:09.722Z,66.33
2022-11-20T16:52:40.491Z,66.25
2022-11-20T16:55:11.472Z,66.27
2022-11-20T16:57:42.870Z,66.39
2022-11-20T17:00:13.978Z,66.39
2022-11-20T17:02:44.823Z,66.39
2022-11-20T17:05:15.836Z,66.45
2022-11-20T17:07:46.773Z,66.40
2022-11-20T17:10:17.917Z,66.50
2022-11-20T17:12:48.655Z,66.57
2022-11-20T17:15:19.630Z,66.55
2022-11-20T17:17:50.387Z,66.57
2022-11-20T17:20:21.436Z,66.64
2022-11-20T17:22:52.335Z,66.75
2022-11-20T17:25:23.535Z,66.74
2022-11-20T17:27:55.347Z,66.71
2022-11-20T17:30:26.127Z,66.77
2022-11-20T17:32:56.957Z,66.85
2022-11-20T17:35:27.905Z,66.86
2022-11-20T17:37:59.037Z,66.69
2022-11-20T17:40:30.091Z,66.67
2022-11-20T17:43:00.843Z,66.53
2022-11-20T17:45:31.668Z,66.58
2022-11-20T17:48:02.450Z,66.59
2022-11-20T17:50:33.287Z,66.64
2022-11-20T17:53:04.145Z,66.72
2022-11-20T17:55:36.643Z,66.76
2022-11-20T17:58:07.796Z,66.80
2022-11-20T18:00:38.627Z,66.85
2022-11-20T18:03:09.585Z,66.81
2022-11-20T18:05:40.430Z,66.95
2022-11-20T18:08:11.294Z,66.95
2022-11-20T18:10:42.114Z,66.90
2022-11-20T18:13:13.033Z,66.94
2022-11-20T18:15:43.799Z,66.80
2022-11-20T18:18:15.074Z,66.83
2022-11-20T18:20:45.865Z,66.63
2022-11-20T18:23:16.645Z,66.75
2022-11-20T18:25:47.723Z,66.62
2022-11-20T18:28:20.054Z,66.27
2022-11-20T18:30:51.018Z,66.31
2022-11-20T18:33:26.917Z,66.40
2022-11-20T18:35:54.562Z,66.45
2022-11-20T18:38:25.315Z,66.57
2022-11-20T18:40:57.742Z,66.65
2022-11-20T18:43:46.468Z,66.65
2022-11-20T18:46:17.648Z,66.49
2022-11-20T18:48:48.695Z,66.45
2022-11-20T18:51:20.328Z,66.56
2022-11-20T18:53:51.204Z,66.62
2022-11-20T18:56:22.230Z,66.67
2022-11-20T18:58:54.684Z,66.68
2022-11-20T19:01:25.982Z,66.71
2022-11-20T19:03:57.252Z,66.68
2022-11-20T19:06:28.229Z,66.65
2022-11-20T19:08:58.943Z,66.45
2022-11-20T19:11:29.845Z,66.44
2022-11-20T19:14:00.594Z,66.44
2022-11-20T19:16:32.003Z,66.48
2022-11-20T19:19:03.790Z,66.44
2022-11-20T19:21:34.857Z,66.25
2022-11-20T19:24:05.721Z,66.16
2022-11-20T19:26:37.610Z,66.21
2022-11-20T19:29:08.446Z,66.20
2022-11-20T19:31:39.258Z,65.97
2022-11-20T19:34:12.175Z,66.03
2022-11-20T19:36:45.094Z,66.09
2022-11-20T19:39:16.258Z,66.14
2022-11-20T19:41:47.190Z,66.11
2022-11-20T19:44:18.412Z,66.15
2022-11-20T19:46:51.076Z,66.21
2022-11-20T19:49:22.497Z,66.27
2022-11-20T19:51:53.613Z,66.27
2022-11-20T19:54:25.020Z,66.30
2022-11-20T19:56:55.975Z,66.17
2022-11-20T19:59:27.113Z,66.25
2022-11-20T20:01:58.374Z,66.27
2022-11-20T20:04:29.490Z,66.31
2022-11-20T20:07:00.938Z,66.30
2022-11-20T20:09:31.852Z,66.39
2022-11-20T20:12:02.625Z,66.42
2022-11-20T20:14:34.837Z,66.48
2022-11-20T20:17:05.558Z,66.57
2022-11-20T20:19:36.401Z,66.66
2022-11-20T20:22:07.204Z,66.71
2022-11-20T20:24:37.929Z,66.73
2022-11-20T20:27:08.875Z,66.75
2022-11-20T20:29:39.629Z,66.76
2022-11-20T20:32:10.739Z,66.77
2022-11-20T20:34:41.422Z,66.77
2022-11-20T20:37:12.142Z,66.83
2022-11-20T20:39:42.960Z,66.83
2022-11-20T20:42:13.701Z,66.91
2022-11-20T20:45:02.191Z,66.87
2022-11-20T20:47:33.815Z,66.92
2022-11-20T20:50:05.827Z,66.93
2022-11-20T20:52:36.850Z,66.94
2022-11-20T20:55:08.061Z,66.93
2022-11-20T20:57:38.872Z,66.95
2022-11-20T21:00:10.590Z,67.02
2022-11-20T21:02:41.514Z,67.08
2022-11-20T21:05:12.545Z,67.13
2022-11-20T21:08:01.182Z,67.10
2022-11-20T21:10:32.223Z,67.09
2022-11-20T21:13:03.247Z,67.18
2022-11-20T21:15:34.090Z,67.24
2022-11-20T21:18:05.037Z,67.26
2022-11-20T21:20:54.079Z,67.33
2022-11-20T21:23:25.075Z,67.28
2022-11-20T21:25:55.928Z,67.33
2022-11-20T21:28:26.818Z,67.38
2022-11-20T21:31:05.053Z,67.48
2022-11-20T21:33:39.775Z,67.54
2022-11-20T21:36:11.695Z,67.44
2022-11-20T21:38:42.561Z,67.53
2022-11-20T21:41:14.131Z,67.48
2022-11-20T21:43:45.706Z,67.48
2022-11-20T21:46:17.158Z,67.45
2022-11-20T21:48:48.153Z,67.45
2022-11-20T21:51:23.206Z,67.54
2022-11-20T21:53:55.252Z,67.51
2022-11-20T21:56:26.710Z,67.50
2022-11-20T21:58:58.301Z,67.58
2022-11-20T22:01:30.571Z,67.57
2022-11-20T22:04:03.034Z,67.56
2022-11-20T22:06:35.044Z,67.56
2022-11-20T22:09:05.955Z,67.59
2022-11-20T22:11:36.898Z,67.58
2022-11-20T22:14:23.541Z,67.59
2022-11-20T22:16:55.338Z,67.57
2022-11-20T22:19:26.480Z,67.58
2022-11-20T22:21:58.322Z,67.61
2022-11-20T22:24:29.256Z,67.61
2022-11-20T22:27:00.259Z,67.65
2022-11-20T22:29:31.590Z,67.64
2022-11-20T22:32:02.377Z,67.64
2022-11-20T22:34:33.281Z,67.68
2022-11-20T22:37:04.066Z,67.75
2022-11-20T22:39:34.841Z,67.77
2022-11-20T22:42:05.829Z,67.72
2022-11-20T22:44:36.705Z,67.73
2022-11-20T22:47:11.344Z,67.71
2022-11-20T22:49:40.838Z,67.75
2022-11-20T22:52:11.780Z,67.77
2022-11-20T22:54:42.812Z,67.77
2022-11-20T22:57:13.652Z,67.80
2022-11-20T22:59:44.446Z,67.74
2022-11-20T23:02:15.330Z,67.77
2022-11-20T23:04:47.474Z,67.82
2022-11-20T23:07:18.337Z,67.80
2022-11-20T23:09:49.186Z,67.78
2022-11-20T23:12:19.926Z,67.81
2022-11-20T23:14:50.622Z,67.79
2022-11-20T23:17:21.464Z,67.78
2022-11-20T23:19:52.494Z,67.81
2022-11-20T23:22:23.183Z,67.81
2022-11-20T23:24:54.036Z,67.80
2022-11-20T23:27:28.296Z,67.82
2022-11-20T23:29:59.157Z,67.83
2022-11-20T23:32:30.883Z,67.84
2022-11-20T23:35:01.687Z,67.83
2022-11-20T23:37:32.662Z,67.79
2022-11-20T23:40:04.319Z,67.69
2022-11-20T23:42:35.300Z,67.72
2022-11-20T23:45:06.191Z,67.72
2022-11-20T23:47:37.025Z,67.71
2022-11-20T23:50:07.827Z,67.72
2022-11-20T23:52:38.598Z,67.74
2022-11-20T23:55:09.316Z,67.75
2022-11-20T23:57:40.220Z,67.72
